sensor_id;sensor_type;location;lat;lon;timestamp;P1;durP1;ratioP1;P2;durP2;ratioP2
42294;SDS011;27947;47.556;18.718;2023-05-23T00:02:21;5.00;;;3.97;;
42294;SDS011;27947;47.556;18.718;2023-05-23T00:04:46;6.88;;;3.85;;
42294;SDS011;27947;47.556;18.718;2023-05-23T00:07:12;8.63;;;4.35;;
42294;SDS011;27947;47.556;18.718;2023-05-23T00:09:37;8.82;;;4.10;;
42294;SDS011;27947;47.556;18.718;2023-05-23T00:12:03;8.13;;;4.80;;
42294;SDS011;27947;47.556;18.718;2023-05-23T00:14:28;8.00;;;4.43;;
42294;SDS011;27947;47.556;18.718;2023-05-23T00:16:58;4.93;;;3.83;;
42294;SDS011;27947;47.556;18.718;2023-05-23T00:19:24;6.25;;;4.28;;
42294;SDS011;27947;47.556;18.718;2023-05-23T00:21:49;7.35;;;4.18;;
42294;SDS011;27947;47.556;18.718;2023-05-23T00:24:17;6.93;;;4.05;;
42294;SDS011;27947;47.556;18.718;2023-05-23T00:26:44;5.43;;;4.13;;
42294;SDS011;27947;47.556;18.718;2023-05-23T00:29:10;6.45;;;4.32;;
42294;SDS011;27947;47.556;18.718;2023-05-23T00:31:41;9.05;;;4.40;;
42294;SDS011;27947;47.556;18.718;2023-05-23T00:34:10;7.68;;;4.20;;
42294;SDS011;27947;47.556;18.718;2023-05-23T00:36:36;8.60;;;4.40;;
42294;SDS011;27947;47.556;18.718;2023-05-23T00:39:02;5.40;;;3.90;;
42294;SDS011;27947;47.556;18.718;2023-05-23T00:41:29;8.43;;;3.65;;
42294;SDS011;27947;47.556;18.718;2023-05-23T00:43:56;6.72;;;3.90;;
42294;SDS011;27947;47.556;18.718;2023-05-23T00:46:24;6.45;;;4.28;;
42294;SDS011;27947;47.556;18.718;2023-05-23T00:48:49;6.85;;;4.18;;
42294;SDS011;27947;47.556;18.718;2023-05-23T00:51:16;9.10;;;4.40;;
42294;SDS011;27947;47.556;18.718;2023-05-23T00:53:41;8.10;;;4.07;;
42294;SDS011;27947;47.556;18.718;2023-05-23T00:56:07;7.95;;;3.80;;
42294;SDS011;27947;47.556;18.718;2023-05-23T00:58:33;5.80;;;3.53;;
42294;SDS011;27947;47.556;18.718;2023-05-23T01:00:58;7.55;;;3.45;;
42294;SDS011;27947;47.556;18.718;2023-05-23T01:03:24;5.93;;;3.72;;
42294;SDS011;27947;47.556;18.718;2023-05-23T01:05:53;7.93;;;4.00;;
42294;SDS011;27947;47.556;18.718;2023-05-23T01:08:18;6.28;;;4.05;;
42294;SDS011;27947;47.556;18.718;2023-05-23T01:10:44;7.22;;;3.92;;
42294;SDS011;27947;47.556;18.718;2023-05-23T01:15:49;6.68;;;3.60;;
42294;SDS011;27947;47.556;18.718;2023-05-23T01:19:20;7.78;;;4.10;;
42294;SDS011;27947;47.556;18.718;2023-05-23T01:21:13;6.78;;;4.18;;
42294;SDS011;27947;47.556;18.718;2023-05-23T01:24:02;5.45;;;3.78;;
42294;SDS011;27947;47.556;18.718;2023-05-23T01:29:10;7.15;;;3.92;;
42294;SDS011;27947;47.556;18.718;2023-05-23T01:31:39;11.00;;;4.50;;
42294;SDS011;27947;47.556;18.718;2023-05-23T01:34:06;7.70;;;3.33;;
42294;SDS011;27947;47.556;18.718;2023-05-23T01:36:32;8.00;;;3.65;;
42294;SDS011;27947;47.556;18.718;2023-05-23T01:38:59;5.18;;;4.10;;
42294;SDS011;27947;47.556;18.718;2023-05-23T01:41:26;5.90;;;3.65;;
42294;SDS011;27947;47.556;18.718;2023-05-23T01:43:52;7.78;;;4.63;;
42294;SDS011;27947;47.556;18.718;2023-05-23T01:46:18;5.82;;;3.78;;
42294;SDS011;27947;47.556;18.718;2023-05-23T01:48:44;8.93;;;3.97;;
42294;SDS011;27947;47.556;18.718;2023-05-23T01:51:10;6.85;;;4.22;;
42294;SDS011;27947;47.556;18.718;2023-05-23T01:53:35;5.45;;;3.78;;
42294;SDS011;27947;47.556;18.718;2023-05-23T01:56:01;7.22;;;3.83;;
42294;SDS011;27947;47.556;18.718;2023-05-23T01:58:28;6.68;;;3.53;;
42294;SDS011;27947;47.556;18.718;2023-05-23T02:00:53;5.13;;;3.92;;
42294;SDS011;27947;47.556;18.718;2023-05-23T02:03:18;6.88;;;4.30;;
42294;SDS011;27947;47.556;18.718;2023-05-23T02:05:44;7.50;;;3.95;;
42294;SDS011;27947;47.556;18.718;2023-05-23T02:08:09;6.50;;;4.05;;
42294;SDS011;27947;47.556;18.718;2023-05-23T02:10:36;9.23;;;3.72;;
42294;SDS011;27947;47.556;18.718;2023-05-23T02:13:02;8.00;;;4.40;;
42294;SDS011;27947;47.556;18.718;2023-05-23T02:15:28;7.22;;;3.97;;
42294;SDS011;27947;47.556;18.718;2023-05-23T02:17:53;7.03;;;4.15;;
42294;SDS011;27947;47.556;18.718;2023-05-23T02:20:19;7.63;;;4.43;;
42294;SDS011;27947;47.556;18.718;2023-05-23T02:22:46;5.82;;;4.10;;
42294;SDS011;27947;47.556;18.718;2023-05-23T02:25:11;7.68;;;4.20;;
42294;SDS011;27947;47.556;18.718;2023-05-23T02:27:38;9.23;;;4.38;;
42294;SDS011;27947;47.556;18.718;2023-05-23T02:30:03;8.75;;;4.53;;
42294;SDS011;27947;47.556;18.718;2023-05-23T02:32:29;7.63;;;4.57;;
42294;SDS011;27947;47.556;18.718;2023-05-23T02:34:54;7.03;;;4.43;;
42294;SDS011;27947;47.556;18.718;2023-05-23T02:37:20;8.18;;;4.78;;
42294;SDS011;27947;47.556;18.718;2023-05-23T02:39:46;7.70;;;4.65;;
42294;SDS011;27947;47.556;18.718;2023-05-23T02:42:12;9.25;;;5.10;;
42294;SDS011;27947;47.556;18.718;2023-05-23T02:44:37;10.73;;;5.35;;
42294;SDS011;27947;47.556;18.718;2023-05-23T02:47:02;7.32;;;4.80;;
42294;SDS011;27947;47.556;18.718;2023-05-23T02:49:28;8.90;;;4.88;;
42294;SDS011;27947;47.556;18.718;2023-05-23T02:51:53;6.97;;;4.68;;
42294;SDS011;27947;47.556;18.718;2023-05-23T02:54:19;7.90;;;4.93;;
42294;SDS011;27947;47.556;18.718;2023-05-23T02:56:44;6.65;;;4.95;;
42294;SDS011;27947;47.556;18.718;2023-05-23T02:59:10;7.82;;;4.82;;
42294;SDS011;27947;47.556;18.718;2023-05-23T03:01:36;7.20;;;4.32;;
42294;SDS011;27947;47.556;18.718;2023-05-23T03:04:02;7.88;;;5.07;;
42294;SDS011;27947;47.556;18.718;2023-05-23T03:06:27;7.78;;;4.70;;
42294;SDS011;27947;47.556;18.718;2023-05-23T03:08:52;12.05;;;4.97;;
42294;SDS011;27947;47.556;18.718;2023-05-23T03:11:19;7.32;;;5.20;;
42294;SDS011;27947;47.556;18.718;2023-05-23T03:13:46;10.23;;;5.65;;
42294;SDS011;27947;47.556;18.718;2023-05-23T03:16:12;7.95;;;5.03;;
42294;SDS011;27947;47.556;18.718;2023-05-23T03:18:37;8.68;;;5.35;;
42294;SDS011;27947;47.556;18.718;2023-05-23T03:21:02;8.75;;;4.90;;
42294;SDS011;27947;47.556;18.718;2023-05-23T03:23:28;7.78;;;4.72;;
42294;SDS011;27947;47.556;18.718;2023-05-23T03:25:53;8.63;;;4.57;;
42294;SDS011;27947;47.556;18.718;2023-05-23T03:28:19;8.95;;;4.47;;
42294;SDS011;27947;47.556;18.718;2023-05-23T03:30:45;9.98;;;5.03;;
42294;SDS011;27947;47.556;18.718;2023-05-23T03:33:10;8.30;;;5.07;;
42294;SDS011;27947;47.556;18.718;2023-05-23T03:35:36;9.10;;;5.13;;
42294;SDS011;27947;47.556;18.718;2023-05-23T03:38:01;8.40;;;4.95;;
42294;SDS011;27947;47.556;18.718;2023-05-23T03:40:27;7.38;;;5.47;;
42294;SDS011;27947;47.556;18.718;2023-05-23T03:43:03;8.57;;;5.20;;
42294;SDS011;27947;47.556;18.718;2023-05-23T03:45:29;8.68;;;4.38;;
42294;SDS011;27947;47.556;18.718;2023-05-23T03:47:55;9.48;;;5.00;;
42294;SDS011;27947;47.556;18.718;2023-05-23T03:50:20;9.68;;;4.95;;
42294;SDS011;27947;47.556;18.718;2023-05-23T03:52:46;8.57;;;4.70;;
42294;SDS011;27947;47.556;18.718;2023-05-23T03:55:11;8.32;;;5.60;;
42294;SDS011;27947;47.556;18.718;2023-05-23T03:57:37;7.95;;;5.00;;
42294;SDS011;27947;47.556;18.718;2023-05-23T04:00:03;8.30;;;4.80;;
42294;SDS011;27947;47.556;18.718;2023-05-23T04:02:42;6.75;;;5.35;;
42294;SDS011;27947;47.556;18.718;2023-05-23T04:05:08;6.75;;;4.78;;
42294;SDS011;27947;47.556;18.718;2023-05-23T04:07:34;9.30;;;4.60;;
42294;SDS011;27947;47.556;18.718;2023-05-23T04:10:00;8.45;;;5.00;;
42294;SDS011;27947;47.556;18.718;2023-05-23T04:12:26;7.30;;;4.72;;
42294;SDS011;27947;47.556;18.718;2023-05-23T04:14:52;8.27;;;4.80;;
42294;SDS011;27947;47.556;18.718;2023-05-23T04:17:17;8.95;;;5.07;;
42294;SDS011;27947;47.556;18.718;2023-05-23T04:19:43;6.45;;;4.72;;
42294;SDS011;27947;47.556;18.718;2023-05-23T04:22:08;9.15;;;4.70;;
42294;SDS011;27947;47.556;18.718;2023-05-23T04:24:34;9.48;;;5.38;;
42294;SDS011;27947;47.556;18.718;2023-05-23T04:27:01;6.53;;;4.68;;
42294;SDS011;27947;47.556;18.718;2023-05-23T04:29:26;8.13;;;4.75;;
42294;SDS011;27947;47.556;18.718;2023-05-23T04:31:53;6.45;;;4.43;;
42294;SDS011;27947;47.556;18.718;2023-05-23T04:34:19;6.75;;;5.07;;
42294;SDS011;27947;47.556;18.718;2023-05-23T04:36:46;11.50;;;5.35;;
42294;SDS011;27947;47.556;18.718;2023-05-23T04:39:12;10.43;;;5.60;;
42294;SDS011;27947;47.556;18.718;2023-05-23T04:41:47;10.65;;;5.60;;
42294;SDS011;27947;47.556;18.718;2023-05-23T04:44:40;9.88;;;5.47;;
42294;SDS011;27947;47.556;18.718;2023-05-23T04:47:11;7.60;;;5.13;;
42294;SDS011;27947;47.556;18.718;2023-05-23T04:50:05;9.23;;;5.72;;
42294;SDS011;27947;47.556;18.718;2023-05-23T04:52:32;8.85;;;4.95;;
42294;SDS011;27947;47.556;18.718;2023-05-23T04:54:58;7.03;;;4.22;;
42294;SDS011;27947;47.556;18.718;2023-05-23T04:57:24;8.52;;;5.20;;
42294;SDS011;27947;47.556;18.718;2023-05-23T04:59:49;8.70;;;5.75;;
42294;SDS011;27947;47.556;18.718;2023-05-23T05:02:15;7.85;;;5.50;;
42294;SDS011;27947;47.556;18.718;2023-05-23T05:04:40;14.32;;;6.97;;
42294;SDS011;27947;47.556;18.718;2023-05-23T05:07:06;14.85;;;6.82;;
42294;SDS011;27947;47.556;18.718;2023-05-23T05:09:32;11.13;;;6.45;;
42294;SDS011;27947;47.556;18.718;2023-05-23T05:11:57;13.77;;;6.47;;
42294;SDS011;27947;47.556;18.718;2023-05-23T05:14:24;14.45;;;6.63;;
42294;SDS011;27947;47.556;18.718;2023-05-23T05:16:49;31.92;;;7.35;;
42294;SDS011;27947;47.556;18.718;2023-05-23T05:19:15;13.52;;;7.38;;
42294;SDS011;27947;47.556;18.718;2023-05-23T05:21:40;14.85;;;7.38;;
42294;SDS011;27947;47.556;18.718;2023-05-23T05:24:05;12.30;;;7.55;;
42294;SDS011;27947;47.556;18.718;2023-05-23T05:26:34;15.52;;;7.30;;
42294;SDS011;27947;47.556;18.718;2023-05-23T05:29:00;17.55;;;7.57;;
42294;SDS011;27947;47.556;18.718;2023-05-23T05:31:26;17.90;;;6.97;;
42294;SDS011;27947;47.556;18.718;2023-05-23T05:33:51;10.82;;;7.13;;
42294;SDS011;27947;47.556;18.718;2023-05-23T05:36:18;12.27;;;7.15;;
42294;SDS011;27947;47.556;18.718;2023-05-23T05:38:44;12.52;;;7.60;;
42294;SDS011;27947;47.556;18.718;2023-05-23T05:41:09;12.13;;;7.22;;
42294;SDS011;27947;47.556;18.718;2023-05-23T05:43:39;11.70;;;6.55;;
42294;SDS011;27947;47.556;18.718;2023-05-23T05:46:05;16.58;;;8.45;;
42294;SDS011;27947;47.556;18.718;2023-05-23T05:48:31;25.13;;;8.43;;
42294;SDS011;27947;47.556;18.718;2023-05-23T05:51:00;14.30;;;7.85;;
42294;SDS011;27947;47.556;18.718;2023-05-23T05:53:29;15.50;;;7.90;;
42294;SDS011;27947;47.556;18.718;2023-05-23T05:55:55;11.65;;;6.68;;
42294;SDS011;27947;47.556;18.718;2023-05-23T05:58:21;11.25;;;5.93;;
42294;SDS011;27947;47.556;18.718;2023-05-23T06:01:07;12.30;;;6.68;;
42294;SDS011;27947;47.556;18.718;2023-05-23T06:03:32;9.15;;;6.35;;
42294;SDS011;27947;47.556;18.718;2023-05-23T06:05:58;15.55;;;6.82;;
42294;SDS011;27947;47.556;18.718;2023-05-23T06:08:23;19.58;;;9.20;;
42294;SDS011;27947;47.556;18.718;2023-05-23T06:10:49;14.20;;;7.55;;
42294;SDS011;27947;47.556;18.718;2023-05-23T06:13:14;14.52;;;7.47;;
42294;SDS011;27947;47.556;18.718;2023-05-23T06:15:43;13.18;;;7.80;;
42294;SDS011;27947;47.556;18.718;2023-05-23T06:18:10;12.30;;;7.50;;
42294;SDS011;27947;47.556;18.718;2023-05-23T06:20:35;10.93;;;7.55;;
42294;SDS011;27947;47.556;18.718;2023-05-23T06:23:04;12.77;;;7.13;;
42294;SDS011;27947;47.556;18.718;2023-05-23T06:25:30;12.32;;;8.15;;
42294;SDS011;27947;47.556;18.718;2023-05-23T06:27:55;17.73;;;10.68;;
42294;SDS011;27947;47.556;18.718;2023-05-23T06:30:22;25.55;;;14.30;;
42294;SDS011;27947;47.556;18.718;2023-05-23T06:32:48;17.40;;;11.00;;
42294;SDS011;27947;47.556;18.718;2023-05-23T06:35:13;10.95;;;6.88;;
42294;SDS011;27947;47.556;18.718;2023-05-23T06:37:39;12.88;;;8.10;;
42294;SDS011;27947;47.556;18.718;2023-05-23T06:40:09;12.57;;;7.20;;
42294;SDS011;27947;47.556;18.718;2023-05-23T06:42:35;14.80;;;7.38;;
42294;SDS011;27947;47.556;18.718;2023-05-23T06:45:11;16.80;;;9.88;;
42294;SDS011;27947;47.556;18.718;2023-05-23T06:47:36;11.45;;;8.15;;
42294;SDS011;27947;47.556;18.718;2023-05-23T06:50:02;14.00;;;6.65;;
42294;SDS011;27947;47.556;18.718;2023-05-23T06:52:27;11.07;;;6.82;;
42294;SDS011;27947;47.556;18.718;2023-05-23T06:54:53;12.57;;;7.13;;
42294;SDS011;27947;47.556;18.718;2023-05-23T06:57:18;11.82;;;7.07;;
42294;SDS011;27947;47.556;18.718;2023-05-23T06:59:44;12.45;;;7.35;;
42294;SDS011;27947;47.556;18.718;2023-05-23T07:02:09;12.15;;;7.13;;
42294;SDS011;27947;47.556;18.718;2023-05-23T07:04:35;12.13;;;6.90;;
42294;SDS011;27947;47.556;18.718;2023-05-23T07:07:05;10.73;;;6.68;;
42294;SDS011;27947;47.556;18.718;2023-05-23T07:09:31;12.10;;;6.28;;
42294;SDS011;27947;47.556;18.718;2023-05-23T07:12:06;9.98;;;5.97;;
42294;SDS011;27947;47.556;18.718;2023-05-23T07:14:32;11.82;;;6.18;;
42294;SDS011;27947;47.556;18.718;2023-05-23T07:16:59;14.57;;;7.10;;
42294;SDS011;27947;47.556;18.718;2023-05-23T07:19:25;12.45;;;6.43;;
42294;SDS011;27947;47.556;18.718;2023-05-23T07:21:51;14.63;;;6.63;;
42294;SDS011;27947;47.556;18.718;2023-05-23T07:24:17;11.88;;;6.75;;
42294;SDS011;27947;47.556;18.718;2023-05-23T07:26:43;18.60;;;6.30;;
42294;SDS011;27947;47.556;18.718;2023-05-23T07:29:08;12.88;;;6.13;;
42294;SDS011;27947;47.556;18.718;2023-05-23T07:31:34;10.07;;;6.13;;
42294;SDS011;27947;47.556;18.718;2023-05-23T07:34:00;13.27;;;6.13;;
42294;SDS011;27947;47.556;18.718;2023-05-23T07:36:38;9.35;;;5.90;;
42294;SDS011;27947;47.556;18.718;2023-05-23T07:39:08;8.88;;;5.40;;
42294;SDS011;27947;47.556;18.718;2023-05-23T07:41:33;9.55;;;5.38;;
42294;SDS011;27947;47.556;18.718;2023-05-23T07:43:58;11.70;;;5.60;;
42294;SDS011;27947;47.556;18.718;2023-05-23T07:46:24;13.07;;;5.53;;
42294;SDS011;27947;47.556;18.718;2023-05-23T07:48:49;9.65;;;6.25;;
42294;SDS011;27947;47.556;18.718;2023-05-23T07:51:14;12.52;;;6.40;;
42294;SDS011;27947;47.556;18.718;2023-05-23T07:53:45;9.20;;;7.32;;
42294;SDS011;27947;47.556;18.718;2023-05-23T07:56:11;12.35;;;5.97;;
42294;SDS011;27947;47.556;18.718;2023-05-23T07:58:39;10.57;;;5.97;;
42294;SDS011;27947;47.556;18.718;2023-05-23T08:01:06;9.23;;;6.07;;
42294;SDS011;27947;47.556;18.718;2023-05-23T08:04:04;9.52;;;5.97;;
42294;SDS011;27947;47.556;18.718;2023-05-23T08:06:45;13.43;;;5.77;;
42294;SDS011;27947;47.556;18.718;2023-05-23T08:09:11;8.38;;;5.15;;
42294;SDS011;27947;47.556;18.718;2023-05-23T08:11:41;8.73;;;6.75;;
42294;SDS011;27947;47.556;18.718;2023-05-23T08:14:06;14.00;;;6.68;;
42294;SDS011;27947;47.556;18.718;2023-05-23T08:16:35;10.23;;;6.22;;
42294;SDS011;27947;47.556;18.718;2023-05-23T08:19:01;11.30;;;5.82;;
42294;SDS011;27947;47.556;18.718;2023-05-23T08:21:27;8.85;;;5.47;;
42294;SDS011;27947;47.556;18.718;2023-05-23T08:23:52;6.72;;;4.45;;
42294;SDS011;27947;47.556;18.718;2023-05-23T08:26:18;10.02;;;5.45;;
42294;SDS011;27947;47.556;18.718;2023-05-23T08:28:45;10.25;;;6.95;;
42294;SDS011;27947;47.556;18.718;2023-05-23T08:31:10;14.70;;;5.80;;
42294;SDS011;27947;47.556;18.718;2023-05-23T08:33:36;12.70;;;5.63;;
42294;SDS011;27947;47.556;18.718;2023-05-23T08:36:02;8.45;;;5.43;;
42294;SDS011;27947;47.556;18.718;2023-05-23T08:38:27;9.25;;;5.55;;
42294;SDS011;27947;47.556;18.718;2023-05-23T08:41:19;10.18;;;5.40;;
42294;SDS011;27947;47.556;18.718;2023-05-23T08:43:47;7.43;;;4.82;;
42294;SDS011;27947;47.556;18.718;2023-05-23T08:46:18;9.77;;;5.93;;
42294;SDS011;27947;47.556;18.718;2023-05-23T08:48:46;11.57;;;5.28;;
42294;SDS011;27947;47.556;18.718;2023-05-23T08:51:14;8.20;;;5.70;;
42294;SDS011;27947;47.556;18.718;2023-05-23T08:53:41;8.82;;;5.93;;
42294;SDS011;27947;47.556;18.718;2023-05-23T08:56:11;6.28;;;4.82;;
42294;SDS011;27947;47.556;18.718;2023-05-23T08:58:41;9.07;;;4.45;;
42294;SDS011;27947;47.556;18.718;2023-05-23T09:01:08;20.05;;;4.72;;
42294;SDS011;27947;47.556;18.718;2023-05-23T09:03:37;7.30;;;4.00;;
42294;SDS011;27947;47.556;18.718;2023-05-23T09:06:14;5.03;;;4.22;;
42294;SDS011;27947;47.556;18.718;2023-05-23T09:08:40;6.20;;;4.57;;
42294;SDS011;27947;47.556;18.718;2023-05-23T09:11:06;10.55;;;5.70;;
42294;SDS011;27947;47.556;18.718;2023-05-23T09:13:36;7.60;;;4.97;;
42294;SDS011;27947;47.556;18.718;2023-05-23T09:16:07;6.43;;;4.43;;
42294;SDS011;27947;47.556;18.718;2023-05-23T09:18:43;9.50;;;4.45;;
42294;SDS011;27947;47.556;18.718;2023-05-23T09:21:12;9.35;;;4.85;;
42294;SDS011;27947;47.556;18.718;2023-05-23T09:23:44;7.90;;;5.10;;
42294;SDS011;27947;47.556;18.718;2023-05-23T09:26:11;7.13;;;3.60;;
42294;SDS011;27947;47.556;18.718;2023-05-23T09:28:41;9.65;;;5.25;;
42294;SDS011;27947;47.556;18.718;2023-05-23T09:31:07;7.25;;;4.40;;
42294;SDS011;27947;47.556;18.718;2023-05-23T09:33:43;6.40;;;4.68;;
42294;SDS011;27947;47.556;18.718;2023-05-23T09:36:09;6.55;;;4.97;;
42294;SDS011;27947;47.556;18.718;2023-05-23T09:38:36;7.10;;;5.28;;
42294;SDS011;27947;47.556;18.718;2023-05-23T09:41:02;6.25;;;4.65;;
42294;SDS011;27947;47.556;18.718;2023-05-23T09:43:28;8.48;;;4.28;;
42294;SDS011;27947;47.556;18.718;2023-05-23T09:45:53;5.85;;;4.15;;
42294;SDS011;27947;47.556;18.718;2023-05-23T09:48:21;8.00;;;4.95;;
42294;SDS011;27947;47.556;18.718;2023-05-23T09:50:52;8.15;;;5.05;;
42294;SDS011;27947;47.556;18.718;2023-05-23T09:53:17;9.07;;;4.35;;
42294;SDS011;27947;47.556;18.718;2023-05-23T09:55:45;5.60;;;4.80;;
42294;SDS011;27947;47.556;18.718;2023-05-23T09:58:11;6.22;;;5.07;;
42294;SDS011;27947;47.556;18.718;2023-05-23T10:00:36;6.28;;;4.57;;
42294;SDS011;27947;47.556;18.718;2023-05-23T10:08:11;10.77;;;5.45;;
42294;SDS011;27947;47.556;18.718;2023-05-23T10:10:54;7.32;;;4.40;;
42294;SDS011;27947;47.556;18.718;2023-05-23T10:13:26;8.75;;;5.30;;
42294;SDS011;27947;47.556;18.718;2023-05-23T10:16:39;7.72;;;5.05;;
42294;SDS011;27947;47.556;18.718;2023-05-23T10:18:39;5.93;;;4.70;;
42294;SDS011;27947;47.556;18.718;2023-05-23T10:21:10;9.07;;;4.80;;
42294;SDS011;27947;47.556;18.718;2023-05-23T10:23:36;7.13;;;4.80;;
42294;SDS011;27947;47.556;18.718;2023-05-23T10:26:02;9.07;;;4.50;;
42294;SDS011;27947;47.556;18.718;2023-05-23T10:28:29;7.75;;;3.90;;
42294;SDS011;27947;47.556;18.718;2023-05-23T10:30:54;4.82;;;3.95;;
42294;SDS011;27947;47.556;18.718;2023-05-23T10:33:20;5.10;;;3.85;;
42294;SDS011;27947;47.556;18.718;2023-05-23T10:35:48;9.43;;;4.50;;
42294;SDS011;27947;47.556;18.718;2023-05-23T10:38:35;7.63;;;4.20;;
42294;SDS011;27947;47.556;18.718;2023-05-23T10:46:07;8.07;;;4.30;;
42294;SDS011;27947;47.556;18.718;2023-05-23T10:48:33;6.63;;;4.45;;
42294;SDS011;27947;47.556;18.718;2023-05-23T10:51:03;11.55;;;4.88;;
42294;SDS011;27947;47.556;18.718;2023-05-23T10:53:29;7.13;;;4.28;;
42294;SDS011;27947;47.556;18.718;2023-05-23T10:55:55;7.53;;;4.10;;
42294;SDS011;27947;47.556;18.718;2023-05-23T10:58:20;10.23;;;5.07;;
42294;SDS011;27947;47.556;18.718;2023-05-23T11:00:58;5.55;;;4.05;;
42294;SDS011;27947;47.556;18.718;2023-05-23T11:03:31;6.30;;;4.57;;
42294;SDS011;27947;47.556;18.718;2023-05-23T11:06:00;8.43;;;4.18;;
42294;SDS011;27947;47.556;18.718;2023-05-23T11:08:26;5.10;;;4.15;;
42294;SDS011;27947;47.556;18.718;2023-05-23T11:10:52;6.43;;;4.13;;
42294;SDS011;27947;47.556;18.718;2023-05-23T11:13:18;6.30;;;4.10;;
42294;SDS011;27947;47.556;18.718;2023-05-23T11:15:43;6.88;;;3.70;;
42294;SDS011;27947;47.556;18.718;2023-05-23T11:18:10;4.68;;;4.03;;
42294;SDS011;27947;47.556;18.718;2023-05-23T11:20:43;4.40;;;3.75;;
42294;SDS011;27947;47.556;18.718;2023-05-23T11:23:09;6.50;;;4.45;;
42294;SDS011;27947;47.556;18.718;2023-05-23T11:25:40;8.95;;;3.75;;
42294;SDS011;27947;47.556;18.718;2023-05-23T11:28:08;6.10;;;3.50;;
42294;SDS011;27947;47.556;18.718;2023-05-23T11:30:34;7.05;;;4.05;;
42294;SDS011;27947;47.556;18.718;2023-05-23T11:33:04;5.75;;;3.72;;
42294;SDS011;27947;47.556;18.718;2023-05-23T11:35:31;10.57;;;4.40;;
42294;SDS011;27947;47.556;18.718;2023-05-23T11:37:56;7.13;;;4.18;;
42294;SDS011;27947;47.556;18.718;2023-05-23T11:42:52;7.47;;;3.60;;
42294;SDS011;27947;47.556;18.718;2023-05-23T11:45:23;9.13;;;3.95;;
42294;SDS011;27947;47.556;18.718;2023-05-23T11:47:49;6.47;;;4.50;;
42294;SDS011;27947;47.556;18.718;2023-05-23T11:50:14;8.43;;;4.50;;
42294;SDS011;27947;47.556;18.718;2023-05-23T11:52:40;6.70;;;4.32;;
42294;SDS011;27947;47.556;18.718;2023-05-23T11:55:06;11.73;;;4.70;;
42294;SDS011;27947;47.556;18.718;2023-05-23T11:57:32;8.43;;;4.47;;
42294;SDS011;27947;47.556;18.718;2023-05-23T11:59:57;7.03;;;4.05;;
42294;SDS011;27947;47.556;18.718;2023-05-23T12:02:23;9.93;;;4.45;;
42294;SDS011;27947;47.556;18.718;2023-05-23T12:04:52;8.10;;;4.25;;
42294;SDS011;27947;47.556;18.718;2023-05-23T12:07:20;5.43;;;3.90;;
42294;SDS011;27947;47.556;18.718;2023-05-23T12:09:45;7.10;;;4.03;;
42294;SDS011;27947;47.556;18.718;2023-05-23T12:12:11;10.32;;;4.00;;
42294;SDS011;27947;47.556;18.718;2023-05-23T12:14:37;10.75;;;4.30;;
42294;SDS011;27947;47.556;18.718;2023-05-23T12:17:10;7.80;;;4.40;;
42294;SDS011;27947;47.556;18.718;2023-05-23T12:19:35;6.00;;;4.32;;
42294;SDS011;27947;47.556;18.718;2023-05-23T12:22:04;6.85;;;3.70;;
42294;SDS011;27947;47.556;18.718;2023-05-23T12:24:30;6.28;;;3.65;;
42294;SDS011;27947;47.556;18.718;2023-05-23T12:27:00;5.85;;;3.45;;
42294;SDS011;27947;47.556;18.718;2023-05-23T12:31:54;6.65;;;3.25;;
42294;SDS011;27947;47.556;18.718;2023-05-23T12:34:22;6.05;;;3.53;;
42294;SDS011;27947;47.556;18.718;2023-05-23T12:36:47;5.25;;;3.47;;
42294;SDS011;27947;47.556;18.718;2023-05-23T12:39:22;6.20;;;2.97;;
42294;SDS011;27947;47.556;18.718;2023-05-23T12:41:48;5.28;;;3.25;;
42294;SDS011;27947;47.556;18.718;2023-05-23T12:44:16;5.03;;;3.25;;
42294;SDS011;27947;47.556;18.718;2023-05-23T12:46:41;6.22;;;2.88;;
42294;SDS011;27947;47.556;18.718;2023-05-23T12:49:07;7.65;;;3.78;;
42294;SDS011;27947;47.556;18.718;2023-05-23T12:51:32;6.60;;;3.53;;
42294;SDS011;27947;47.556;18.718;2023-05-23T12:53:58;11.23;;;4.18;;
42294;SDS011;27947;47.556;18.718;2023-05-23T12:56:24;6.57;;;3.55;;
42294;SDS011;27947;47.556;18.718;2023-05-23T12:58:50;5.10;;;3.55;;
42294;SDS011;27947;47.556;18.718;2023-05-23T13:01:15;8.52;;;3.25;;
42294;SDS011;27947;47.556;18.718;2023-05-23T13:03:40;5.38;;;2.90;;
42294;SDS011;27947;47.556;18.718;2023-05-23T13:06:06;6.10;;;3.63;;
42294;SDS011;27947;47.556;18.718;2023-05-23T13:08:31;8.45;;;2.95;;
42294;SDS011;27947;47.556;18.718;2023-05-23T13:10:57;5.68;;;2.70;;
42294;SDS011;27947;47.556;18.718;2023-05-23T13:13:22;3.67;;;2.75;;
42294;SDS011;27947;47.556;18.718;2023-05-23T13:15:48;9.80;;;3.17;;
42294;SDS011;27947;47.556;18.718;2023-05-23T13:18:14;8.65;;;3.20;;
42294;SDS011;27947;47.556;18.718;2023-05-23T13:20:39;5.75;;;3.38;;
42294;SDS011;27947;47.556;18.718;2023-05-23T13:23:06;5.95;;;2.78;;
42294;SDS011;27947;47.556;18.718;2023-05-23T13:25:32;7.13;;;3.45;;
42294;SDS011;27947;47.556;18.718;2023-05-23T13:27:57;6.18;;;2.78;;
42294;SDS011;27947;47.556;18.718;2023-05-23T13:30:23;6.13;;;3.05;;
42294;SDS011;27947;47.556;18.718;2023-05-23T13:32:48;7.45;;;2.72;;
42294;SDS011;27947;47.556;18.718;2023-05-23T13:35:14;5.97;;;2.60;;
42294;SDS011;27947;47.556;18.718;2023-05-23T13:37:40;8.43;;;2.83;;
42294;SDS011;27947;47.556;18.718;2023-05-23T13:40:05;7.10;;;2.90;;
42294;SDS011;27947;47.556;18.718;2023-05-23T13:42:31;7.82;;;2.70;;
42294;SDS011;27947;47.556;18.718;2023-05-23T13:44:57;6.90;;;3.00;;
42294;SDS011;27947;47.556;18.718;2023-05-23T13:47:22;7.20;;;2.45;;
42294;SDS011;27947;47.556;18.718;2023-05-23T13:49:47;6.53;;;2.92;;
42294;SDS011;27947;47.556;18.718;2023-05-23T13:52:13;7.68;;;2.75;;
42294;SDS011;27947;47.556;18.718;2023-05-23T13:54:38;5.85;;;2.60;;
42294;SDS011;27947;47.556;18.718;2023-05-23T13:57:03;5.38;;;2.75;;
42294;SDS011;27947;47.556;18.718;2023-05-23T13:59:29;6.28;;;3.47;;
42294;SDS011;27947;47.556;18.718;2023-05-23T14:01:55;3.63;;;2.50;;
42294;SDS011;27947;47.556;18.718;2023-05-23T14:04:20;4.15;;;2.80;;
42294;SDS011;27947;47.556;18.718;2023-05-23T14:06:46;3.63;;;2.40;;
42294;SDS011;27947;47.556;18.718;2023-05-23T14:09:11;5.97;;;2.72;;
42294;SDS011;27947;47.556;18.718;2023-05-23T14:11:37;4.70;;;2.65;;
42294;SDS011;27947;47.556;18.718;2023-05-23T14:14:03;4.97;;;2.60;;
42294;SDS011;27947;47.556;18.718;2023-05-23T14:16:28;4.78;;;2.47;;
42294;SDS011;27947;47.556;18.718;2023-05-23T14:18:54;4.82;;;2.53;;
42294;SDS011;27947;47.556;18.718;2023-05-23T14:21:20;6.53;;;2.65;;
42294;SDS011;27947;47.556;18.718;2023-05-23T14:23:45;5.80;;;2.65;;
42294;SDS011;27947;47.556;18.718;2023-05-23T14:26:11;4.32;;;2.72;;
42294;SDS011;27947;47.556;18.718;2023-05-23T14:28:36;6.05;;;2.42;;
42294;SDS011;27947;47.556;18.718;2023-05-23T14:31:01;5.30;;;2.60;;
42294;SDS011;27947;47.556;18.718;2023-05-23T14:33:27;4.13;;;2.40;;
42294;SDS011;27947;47.556;18.718;2023-05-23T14:35:52;6.90;;;2.90;;
42294;SDS011;27947;47.556;18.718;2023-05-23T14:38:17;6.10;;;2.90;;
42294;SDS011;27947;47.556;18.718;2023-05-23T14:40:43;7.05;;;2.63;;
42294;SDS011;27947;47.556;18.718;2023-05-23T14:43:08;6.07;;;2.88;;
42294;SDS011;27947;47.556;18.718;2023-05-23T14:45:34;5.70;;;2.47;;
42294;SDS011;27947;47.556;18.718;2023-05-23T14:48:00;9.02;;;3.03;;
42294;SDS011;27947;47.556;18.718;2023-05-23T14:50:25;7.82;;;2.35;;
42294;SDS011;27947;47.556;18.718;2023-05-23T14:52:51;5.80;;;3.10;;